UGKO/KIU METAR and TAF weather

Enter ICAO airport designator
Station Type Date Time Source
UGKO METAR 2020/09/27 03:30 UTC NOAA

UGKO 270330Z 10006KT CAVOK 18/15 Q1011 NOSIG


Station Type Date Time Source
UGKO Decoded METAR 2020/09/27 03:30 UTC NOAA

Station name not available
Sep 26, 2020 - 11:30 PM EDT / 2020.09.27 0330 UTC
Wind: from the E (100 degrees) at 7 MPH (6 KT):0
Visibility: greater than 7 mile(s):0
Temperature: 64 F (18 C)
Dew Point: 59 F (15 C)
Relative Humidity: 82%
Pressure (altimeter): 29.85 in. Hg (1011 hPa)
ob: UGKO 270330Z 10006KT CAVOK 18/15 Q1011 NOSIG
cycle: 3

Station Type Date Time Source
UGKO TAF 2020/09/26 18:02 UTC NOAA

TAF UGKO 261700Z 2618/2718 08006KT CAVOK TX34/2711Z TN19/2702Z
TEMPO 2702/2710 07016KT

Example: see airport list